Time;durP1;ratioP1;P1;durP2;ratioP2;P2;SDS_P1;SDS_P2;PMS_P1;PMS_P2;Temp;Humidity;BMP_temperature;BMP_pressure;BME280_temperature;BME280_humidity;BME280_pressure;Samples;Min_cycle;Max_cycle;Signal;HPM_P1;HPM_P2
2022/07/29 00:00:33;;;;;;;4.07;1.15;;;12.50;93.00;;;;;;5096432;28;20728;-80
2022/07/29 00:03:00;;;;;;;4.43;1.30;;;12.70;90.80;;;;;;5096032;28;20376;-80
2022/07/29 00:05:27;;;;;;;4.70;1.13;;;12.70;89.60;;;;;;5095951;28;20406;-79
2022/07/29 00:07:55;;;;;;;9.35;2.30;;;12.70;91.20;;;;;;5096092;28;20377;-80
2022/07/29 00:10:22;;;;;;;4.22;1.30;;;12.80;90.60;;;;;;5095705;28;20420;-80
2022/07/29 00:12:49;;;;;;;3.95;1.20;;;12.80;90.20;;;;;;5095669;28;20385;-80
2022/07/29 00:15:16;;;;;;;3.03;0.98;;;13.00;86.50;;;;;;5095949;28;20376;-80
2022/07/29 00:17:46;;;;;;;5.60;1.30;;;13.00;86.00;;;;;;5095574;28;20463;-80
2022/07/29 00:20:13;;;;;;;10.73;2.05;;;13.10;85.70;;;;;;5095682;28;20372;-80
2022/07/29 00:22:40;;;;;;;10.23;1.90;;;13.20;86.00;;;;;;5095569;28;20452;-79
2022/07/29 00:25:08;;;;;;;7.05;1.50;;;13.20;83.00;;;;;;5095586;28;20443;-80
2022/07/29 00:27:36;;;;;;;6.72;1.50;;;13.20;84.60;;;;;;5095646;28;20456;-80
2022/07/29 00:30:04;;;;;;;4.70;1.17;;;13.20;82.70;;;;;;5095518;28;20372;-79
2022/07/29 00:32:31;;;;;;;4.93;1.10;;;13.30;83.40;;;;;;5095253;28;20453;-80
2022/07/29 00:37:44;;;;;;;3.80;1.00;;;13.40;82.40;;;;;;5096395;28;20801;-79
2022/07/29 00:40:12;;;;;;;3.47;1.17;;;13.50;82.10;;;;;;5095231;28;20372;-80
2022/07/29 00:42:46;;;;;;;4.93;1.47;;;13.50;82.00;;;;;;5094991;28;20396;-80
2022/07/29 00:45:15;;;;;;;3.13;1.20;;;13.50;84.80;;;;;;5095466;28;20463;-79
2022/07/29 00:47:42;;;;;;;4.57;1.23;;;13.50;81.20;;;;;;5095114;28;20464;-80
2022/07/29 00:50:11;;;;;;;3.53;1.00;;;13.60;82.20;;;;;;5094910;28;20408;-80
2022/07/29 00:52:40;;;;;;;6.20;1.20;;;13.50;79.60;;;;;;5094895;28;20752;-80
2022/07/29 00:55:10;;;;;;;2.80;1.17;;;13.40;81.70;;;;;;5095862;28;20443;-80
2022/07/29 00:57:38;;;;;;;2.80;1.00;;;13.40;80.50;;;;;;5095358;28;20841;-80
2022/07/29 01:00:08;;;;;;;2.55;0.90;;;13.50;79.30;;;;;;5094859;28;20732;-81
2022/07/29 01:02:35;;;;;;;3.22;1.10;;;13.60;78.00;;;;;;5094879;28;20377;-81
2022/07/29 01:05:04;;;;;;;4.38;1.20;;;13.50;78.50;;;;;;5095073;28;20392;-80
2022/07/29 01:07:35;;;;;;;4.25;1.20;;;13.60;80.40;;;;;;5094855;28;20740;-80
2022/07/29 01:10:05;;;;;;;2.85;1.00;;;13.80;76.00;;;;;;5095093;28;20375;-79
2022/07/29 01:12:34;;;;;;;4.20;0.95;;;14.00;73.30;;;;;;5094611;28;20395;-81
2022/07/29 01:15:03;;;;;;;4.75;1.10;;;14.10;74.70;;;;;;5093238;28;20747;-79
2022/07/29 01:17:37;;;;;;;3.25;1.10;;;14.20;73.30;;;;;;5094553;28;20773;-81
2022/07/29 01:20:05;;;;;;;2.60;1.00;;;14.20;71.80;;;;;;5094530;28;20364;-80
2022/07/29 01:22:48;;;;;;;3.05;0.90;;;14.10;72.70;;;;;;5094309;28;20361;-81
2022/07/29 01:25:15;;;;;;;3.63;1.00;;;14.20;72.60;;;;;;5094531;28;20372;-80
2022/07/29 01:27:52;;;;;;;2.80;1.00;;;14.30;73.80;;;;;;5094312;28;20455;-82
2022/07/29 01:30:21;;;;;;;3.35;1.00;;;14.40;71.00;;;;;;5095099;28;20557;-80
2022/07/29 01:32:54;;;;;;;4.22;1.10;;;14.50;71.00;;;;;;5094468;28;20437;-80
2022/07/29 01:35:31;;;;;;;1.88;0.93;;;14.40;70.80;;;;;;5094412;28;20698;-80
2022/07/29 01:38:10;;;;;;;2.75;0.93;;;14.40;70.40;;;;;;5094684;28;20788;-80
2022/07/29 01:41:05;;;;;;;4.93;1.10;;;14.40;71.70;;;;;;5094293;28;20373;-81
2022/07/29 01:43:56;;;;;;;3.70;1.10;;;14.50;72.70;;;;;;5094075;28;20752;-81
2022/07/29 01:46:32;;;;;;;2.70;1.02;;;14.50;72.40;;;;;;5099403;28;20372;-82
2022/07/29 01:49:14;;;;;;;2.88;1.00;;;14.50;72.30;;;;;;5095292;28;20365;-80
2022/07/29 01:52:01;;;;;;;4.53;1.05;;;14.70;72.60;;;;;;5094296;28;20450;-81
2022/07/29 01:54:34;;;;;;;13.35;7.18;;;14.70;70.50;;;;;;5093705;28;20463;-81
2022/07/29 01:57:04;;;;;;;2.40;1.00;;;14.70;71.70;;;;;;5094146;28;20373;-81
2022/07/29 01:59:34;;;;;;;3.00;1.00;;;14.70;70.50;;;;;;5094138;28;20415;-81
2022/07/29 02:02:02;;;;;;;3.78;1.10;;;14.70;71.00;;;;;;5093433;28;20385;-80
2022/07/29 02:04:31;;;;;;;2.83;1.00;;;14.60;72.50;;;;;;5093606;28;20426;-80
2022/07/29 02:07:03;;;;;;;3.60;1.10;;;14.60;71.90;;;;;;5093626;28;20369;-80
2022/07/29 02:09:31;;;;;;;3.30;1.20;;;14.80;72.30;;;;;;5093577;28;20860;-80
2022/07/29 02:12:01;;;;;;;3.65;1.27;;;15.00;72.50;;;;;;5093695;28;20724;-80
2022/07/29 02:14:32;;;;;;;4.85;1.10;;;15.20;72.00;;;;;;5093661;28;20373;-79
2022/07/29 02:17:02;;;;;;;6.80;1.40;;;15.40;70.80;;;;;;5093313;28;20512;-79
2022/07/29 02:19:32;;;;;;;5.95;1.40;;;15.60;69.60;;;;;;5093344;28;20368;-80
2022/07/29 02:22:01;;;;;;;3.50;1.13;;;15.70;66.70;;;;;;5093311;28;20399;-80
2022/07/29 02:24:29;;;;;;;2.85;1.00;;;15.40;67.70;;;;;;5093311;28;20454;-81
2022/07/29 02:27:00;;;;;;;2.80;1.30;;;15.20;67.50;;;;;;5093241;28;20378;-81
2022/07/29 02:29:30;;;;;;;7.45;3.42;;;15.00;70.40;;;;;;5093493;28;20724;-80
2022/07/29 02:31:59;;;;;;;3.90;2.50;;;15.00;68.90;;;;;;5093126;28;20453;-79
2022/07/29 02:34:27;;;;;;;4.43;1.50;;;15.20;68.70;;;;;;5093204;28;20429;-80
2022/07/29 02:36:56;;;;;;;3.58;1.67;;;15.20;68.30;;;;;;5093129;28;20390;-81
2022/07/29 02:39:25;;;;;;;3.67;0.88;;;15.10;68.20;;;;;;5093802;28;20459;-80
2022/07/29 02:42:01;;;;;;;2.08;0.90;;;15.20;69.10;;;;;;5092936;28;20379;-81
2022/07/29 02:44:28;;;;;;;2.45;1.05;;;15.40;67.60;;;;;;5093373;28;20414;-80
2022/07/29 02:47:19;;;;;;;2.83;1.17;;;15.40;66.40;;;;;;5093113;28;20376;-81
2022/07/29 02:50:04;;;;;;;2.42;1.23;;;15.50;64.40;;;;;;5091545;28;20737;-80
2022/07/29 02:52:55;;;;;;;4.38;1.20;;;15.50;65.60;;;;;;5092863;28;20392;-80
2022/07/29 02:55:49;;;;;;;3.67;1.13;;;15.80;65.30;;;;;;5092733;28;20884;-80
2022/07/29 02:58:37;;;;;;;3.95;2.28;;;16.10;64.80;;;;;;5092794;28;20393;-80
2022/07/29 03:01:11;;;;;;;3.38;1.50;;;16.00;63.60;;;;;;5093306;28;20364;-81
2022/07/29 03:03:40;;;;;;;2.95;1.40;;;16.00;66.10;;;;;;5093422;28;20365;-81
2022/07/29 03:06:08;;;;;;;2.45;1.38;;;16.00;61.80;;;;;;5093100;28;20402;-79
2022/07/29 03:08:36;;;;;;;2.60;0.90;;;16.00;61.90;;;;;;5092632;28;20382;-80
2022/07/29 03:11:04;;;;;;;10.95;4.03;;;16.40;60.50;;;;;;5092575;28;20741;-82
2022/07/29 03:13:32;;;;;;;4.65;1.23;;;16.40;60.20;;;;;;5092740;28;20376;-80
2022/07/29 03:16:00;;;;;;;7.63;1.20;;;16.30;59.70;;;;;;5092501;28;20373;-80
2022/07/29 03:18:27;;;;;;;5.18;1.15;;;16.30;60.20;;;;;;5091240;28;20876;-81
2022/07/29 03:20:55;;;;;;;4.32;1.02;;;16.50;59.40;;;;;;5092302;28;20416;-80
2022/07/29 03:23:23;;;;;;;1.53;0.90;;;16.70;60.10;;;;;;5092488;28;20391;-81
2022/07/29 03:25:51;;;;;;;4.40;1.02;;;16.80;59.30;;;;;;5092332;28;20372;-80
2022/07/29 03:28:19;;;;;;;3.85;0.90;;;16.90;58.00;;;;;;5092324;28;20372;-80
2022/07/29 03:30:46;;;;;;;6.35;4.07;;;17.10;58.00;;;;;;5092285;28;20874;-81
2022/07/29 03:33:14;;;;;;;6.95;5.30;;;17.10;57.00;;;;;;5092685;28;20384;-80
2022/07/29 03:35:41;;;;;;;7.53;5.60;;;16.60;56.70;;;;;;5092203;28;20460;-81
2022/07/29 03:38:08;;;;;;;3.03;0.90;;;16.30;57.40;;;;;;5092334;28;20805;-81
2022/07/29 03:40:54;;;;;;;2.40;0.90;;;16.20;58.30;;;;;;5092159;28;20360;-80
2022/07/29 03:43:23;;;;;;;3.13;1.45;;;16.40;59.30;;;;;;5092069;28;20388;-80
2022/07/29 03:45:54;;;;;;;2.38;0.93;;;16.90;58.20;;;;;;5092187;28;20386;-81
2022/07/29 03:48:24;;;;;;;2.57;1.00;;;17.70;57.30;;;;;;5092624;28;20812;-80
2022/07/29 03:50:51;;;;;;;2.85;1.60;;;18.40;53.60;;;;;;5092276;28;20379;-79
2022/07/29 03:53:19;;;;;;;3.60;1.23;;;19.10;52.20;;;;;;5092466;28;20433;-81
2022/07/29 03:55:50;;;;;;;1.52;1.10;;;19.30;50.80;;;;;;5092432;28;20364;-81
2022/07/29 03:58:20;;;;;;;1.67;0.73;;;19.30;48.60;;;;;;5092294;28;20394;-80
2022/07/29 04:00:47;;;;;;;2.05;1.13;;;19.80;48.60;;;;;;5090928;28;20740;-81
2022/07/29 04:03:16;;;;;;;3.60;1.10;;;19.90;48.80;;;;;;5092193;28;20462;-80
2022/07/29 04:05:44;;;;;;;2.55;0.80;;;19.90;47.70;;;;;;5090723;28;20368;-81
2022/07/29 04:08:11;;;;;;;11.88;1.42;;;19.90;48.40;;;;;;5073860;28;20377;-79
2022/07/29 04:10:39;;;;;;;4.18;0.90;;;20.50;46.90;;;;;;5091904;28;20455;-79
2022/07/29 04:13:06;;;;;;;3.00;0.80;;;21.00;45.90;;;;;;5092103;28;20721;-80
2022/07/29 04:15:33;;;;;;;3.53;0.80;;;21.10;44.90;;;;;;5092199;28;20455;-80
2022/07/29 04:18:00;;;;;;;1.88;0.70;;;21.80;43.60;;;;;;5091962;28;20395;-80
2022/07/29 04:20:28;;;;;;;4.03;0.98;;;22.70;41.30;;;;;;5090888;28;20364;-78
2022/07/29 04:22:55;;;;;;;6.20;1.00;;;22.40;40.10;;;;;;5091945;28;20799;-81
2022/07/29 04:25:22;;;;;;;3.23;0.70;;;22.30;38.50;;;;;;5092624;28;20404;-81
2022/07/29 04:28:02;;;;;;;1.33;0.60;;;22.50;37.40;;;;;;5096173;28;20369;-82
2022/07/29 04:30:35;;;;;;;10.75;1.20;;;21.80;38.90;;;;;;5095743;28;20376;-81
2022/07/29 04:33:04;;;;;;;3.75;0.70;;;21.90;39.90;;;;;;5095851;28;20864;-80
2022/07/29 04:35:34;;;;;;;3.63;0.80;;;22.40;38.60;;;;;;5095736;28;20357;-80
2022/07/29 04:38:02;;;;;;;6.03;0.88;;;22.70;37.30;;;;;;5095887;28;20425;-81
2022/07/29 04:40:30;;;;;;;4.63;0.80;;;22.90;38.10;;;;;;5095936;28;20418;-81
2022/07/29 04:42:57;;;;;;;1.42;0.60;;;22.20;38.30;;;;;;5095925;28;20446;-82
2022/07/29 04:45:30;;;;;;;1.33;0.70;;;21.20;39.20;;;;;;5099186;28;20414;-82
2022/07/29 04:47:58;;;;;;;1.23;0.70;;;20.80;40.60;;;;;;5105549;28;20384;-81
2022/07/29 04:50:25;;;;;;;2.30;0.80;;;21.20;41.10;;;;;;5109061;28;20384;-80
2022/07/29 04:52:53;;;;;;;2.28;0.60;;;21.10;40.10;;;;;;5108770;28;20384;-78
2022/07/29 04:55:20;;;;;;;1.30;0.63;;;20.70;40.40;;;;;;5112695;28;20365;-80
2022/07/29 04:57:47;;;;;;;2.30;0.60;;;20.80;40.30;;;;;;5111979;28;20396;-80
2022/07/29 05:00:14;;;;;;;1.40;0.70;;;20.50;40.60;;;;;;5112783;28;20388;-80
2022/07/29 05:02:41;;;;;;;1.10;0.50;;;20.30;40.70;;;;;;5114403;28;20388;-80
2022/07/29 05:05:09;;;;;;;1.60;0.70;;;19.50;42.40;;;;;;5113472;28;20365;-80
2022/07/29 05:07:36;;;;;;;1.27;0.60;;;19.20;42.20;;;;;;5115098;28;20373;-79
2022/07/29 05:10:03;;;;;;;1.65;0.63;;;19.10;42.60;;;;;;5115176;28;20384;-81
2022/07/29 05:12:30;;;;;;;2.05;1.55;;;18.80;41.90;;;;;;5114395;28;20404;-81
2022/07/29 05:14:57;;;;;;;2.05;0.77;;;18.50;42.60;;;;;;5114086;28;20404;-81
2022/07/29 05:17:24;;;;;;;1.60;0.60;;;18.40;43.60;;;;;;5111496;28;20375;-80
2022/07/29 05:19:52;;;;;;;2.80;0.80;;;18.70;43.50;;;;;;5094033;28;20932;-80
2022/07/29 05:22:22;;;;;;;2.60;0.70;;;18.10;43.10;;;;;;5095608;28;20368;-82
2022/07/29 05:24:49;;;;;;;3.67;0.80;;;17.10;44.90;;;;;;5106139;28;20859;-81
2022/07/29 05:27:16;;;;;;;3.33;1.02;;;16.70;46.80;;;;;;5098712;28;20475;-80
2022/07/29 05:29:44;;;;;;;3.38;0.90;;;16.70;46.80;;;;;;5094196;28;20369;-81
2022/07/29 05:32:12;;;;;;;2.53;0.85;;;16.80;47.00;;;;;;5094571;28;20396;-80
2022/07/29 05:34:39;;;;;;;3.88;0.95;;;16.90;47.00;;;;;;5094433;28;20373;-80
2022/07/29 05:37:07;;;;;;;6.30;1.00;;;17.20;45.90;;;;;;5093258;28;20379;-79
2022/07/29 05:39:34;;;;;;;2.40;0.82;;;17.40;47.20;;;;;;5094298;28;20844;-80
2022/07/29 05:42:01;;;;;;;1.75;1.00;;;17.40;49.40;;;;;;5093899;28;20887;-79
2022/07/29 05:44:28;;;;;;;2.50;1.40;;;17.20;50.30;;;;;;5094058;28;20419;-79
2022/07/29 05:46:55;;;;;;;3.08;0.90;;;16.90;50.60;;;;;;5092790;28;20392;-79
2022/07/29 05:49:22;;;;;;;3.00;1.00;;;16.60;51.30;;;;;;5093976;28;20430;-79
2022/07/29 05:51:49;;;;;;;2.50;0.90;;;16.30;52.80;;;;;;5094517;28;20432;-81
2022/07/29 05:54:16;;;;;;;2.50;1.10;;;16.10;53.10;;;;;;5094268;28;20372;-80
2022/07/29 05:56:43;;;;;;;3.15;1.60;;;15.90;53.20;;;;;;5093940;28;20379;-80
2022/07/29 05:59:10;;;;;;;2.47;1.10;;;15.80;54.00;;;;;;5093874;28;20380;-80
2022/07/29 06:01:39;;;;;;;2.90;1.20;;;15.60;54.80;;;;;;5093707;28;20365;-79
2022/07/29 06:04:07;;;;;;;4.10;1.40;;;15.40;55.40;;;;;;5093714;28;20963;-79
2022/07/29 06:06:35;;;;;;;4.22;1.45;;;15.20;55.70;;;;;;5094036;28;20380;-79
2022/07/29 06:09:02;;;;;;;2.08;1.00;;;15.10;55.70;;;;;;5093705;28;20376;-79
2022/07/29 06:11:29;;;;;;;1.90;1.00;;;15.00;56.50;;;;;;5093448;28;20756;-79
2022/07/29 06:13:57;;;;;;;2.13;1.00;;;14.90;56.70;;;;;;5092931;28;20376;-81
2022/07/29 06:16:24;;;;;;;1.55;0.85;;;14.80;57.40;;;;;;5094037;28;20410;-83
2022/07/29 06:18:51;;;;;;;2.67;1.10;;;14.70;57.40;;;;;;5093794;28;20448;-79
2022/07/29 06:21:19;;;;;;;2.28;0.98;;;14.70;57.80;;;;;;5093886;28;20415;-88
2022/07/29 06:23:46;;;;;;;4.70;1.00;;;14.60;58.40;;;;;;5094004;28;20475;-79
2022/07/29 06:26:13;;;;;;;1.73;0.93;;;14.60;58.80;;;;;;5094175;28;20388;-88
2022/07/29 06:28:40;;;;;;;2.40;1.00;;;14.50;59.10;;;;;;5093647;28;20883;-77
2022/07/29 06:31:07;;;;;;;6.65;1.10;;;14.40;59.30;;;;;;5095243;28;20485;-78
2022/07/29 06:33:34;;;;;;;5.10;1.08;;;14.30;59.50;;;;;;5093947;28;20861;-80
2022/07/29 06:36:03;;;;;;;3.42;1.02;;;14.30;59.50;;;;;;5093752;28;20859;-78
2022/07/29 06:38:30;;;;;;;3.17;1.00;;;14.20;59.80;;;;;;5093690;28;20422;-84
2022/07/29 06:41:02;;;;;;;2.55;1.02;;;14.00;60.90;;;;;;5093497;28;20429;-79
2022/07/29 06:43:33;;;;;;;2.58;0.82;;;13.90;61.40;;;;;;5093485;28;20396;-84
2022/07/29 06:46:02;;;;;;;2.35;0.90;;;13.80;61.90;;;;;;5094042;28;20720;-91
2022/07/29 06:48:30;;;;;;;2.20;1.10;;;13.70;62.70;;;;;;5093733;28;20452;-90
2022/07/29 06:50:57;;;;;;;3.17;0.80;;;13.50;62.90;;;;;;5094558;28;20395;-84
2022/07/29 06:53:25;;;;;;;1.98;0.95;;;13.40;63.60;;;;;;5093711;28;20377;-84
2022/07/29 06:55:52;;;;;;;2.83;0.93;;;13.20;64.30;;;;;;5092278;28;20364;-78
2022/07/29 06:58:20;;;;;;;4.30;1.00;;;13.10;65.30;;;;;;5093035;28;20471;-81
2022/07/29 07:00:50;;;;;;;2.47;0.90;;;13.00;66.40;;;;;;5092816;28;20369;-77
2022/07/29 07:03:18;;;;;;;2.63;1.00;;;12.80;66.70;;;;;;5093467;28;20378;-80
2022/07/29 07:05:46;;;;;;;3.13;1.05;;;12.70;67.40;;;;;;5092763;28;20373;-83
2022/07/29 07:08:15;;;;;;;5.47;1.17;;;12.60;68.20;;;;;;5093149;28;20373;-80
2022/07/29 07:10:43;;;;;;;5.82;1.48;;;12.50;69.40;;;;;;5092550;28;20399;-82
2022/07/29 07:13:11;;;;;;;2.75;1.10;;;12.40;71.60;;;;;;5093057;28;20380;-80
2022/07/29 07:15:39;;;;;;;2.53;1.67;;;12.30;71.70;;;;;;5093411;28;20931;-83
2022/07/29 07:18:07;;;;;;;7.13;3.30;;;12.20;72.80;;;;;;5092781;28;20394;-85
2022/07/29 07:20:35;;;;;;;5.17;2.30;;;12.10;73.80;;;;;;5092963;28;20420;-80
2022/07/29 07:23:02;;;;;;;6.32;3.22;;;12.00;74.90;;;;;;5092649;28;20383;-81
2022/07/29 07:25:29;;;;;;;5.75;1.88;;;11.90;75.90;;;;;;5093179;28;20392;-86
2022/07/29 07:27:56;;;;;;;4.30;1.40;;;11.80;76.40;;;;;;5092540;28;20379;-85
2022/07/29 07:30:23;;;;;;;3.42;1.88;;;11.70;78.00;;;;;;5092963;28;20380;-84
2022/07/29 07:32:51;;;;;;;4.50;2.60;;;11.60;79.00;;;;;;5092729;28;20933;-83
2022/07/29 07:35:18;;;;;;;5.25;3.00;;;11.50;80.50;;;;;;5093341;28;20396;-81
2022/07/29 07:37:45;;;;;;;5.80;2.85;;;11.30;82.10;;;;;;5092023;28;20387;-80
2022/07/29 07:40:13;;;;;;;5.97;3.40;;;11.20;84.40;;;;;;5092293;28;20721;-83
2022/07/29 07:42:41;;;;;;;9.30;5.25;;;11.10;86.40;;;;;;5092438;28;20720;-85
2022/07/29 07:45:09;;;;;;;9.90;2.25;;;10.90;88.70;;;;;;5092405;28;20376;-86
2022/07/29 07:47:37;;;;;;;4.80;2.00;;;10.90;90.40;;;;;;5092283;28;20372;-86
2022/07/29 07:50:10;;;;;;;5.82;1.73;;;10.80;91.20;;;;;;5092423;28;20365;-86
2022/07/29 07:52:51;;;;;;;6.20;1.60;;;10.60;92.20;;;;;;5090913;28;20419;-85
2022/07/29 07:55:19;;;;;;;5.18;1.58;;;10.50;93.30;;;;;;5093297;28;20792;-85
2022/07/29 07:57:46;;;;;;;4.60;1.70;;;10.40;94.70;;;;;;5091078;28;20741;-86
2022/07/29 08:00:15;;;;;;;3.88;1.58;;;10.40;95.20;;;;;;5095058;28;20372;-85
2022/07/29 08:02:44;;;;;;;5.53;1.63;;;10.30;95.90;;;;;;5099753;28;20388;-84
2022/07/29 08:05:16;;;;;;;3.92;1.63;;;10.20;96.30;;;;;;5099914;28;20399;-85
2022/07/29 08:07:47;;;;;;;5.00;1.60;;;10.20;96.90;;;;;;5100183;28;20437;-85
2022/07/29 08:13:11;;;;;;;4.80;1.52;;;10.10;97.80;;;;;;5096784;28;20427;-85
2022/07/29 08:15:42;;;;;;;5.13;1.40;;;10.00;98.50;;;;;;5096702;28;20396;-85
2022/07/29 08:18:10;;;;;;;14.48;4.70;;;10.00;98.40;;;;;;5097113;28;20387;-85
2022/07/29 08:20:38;;;;;;;53.60;16.67;;;10.00;98.90;;;;;;5095983;28;20364;-86
2022/07/29 08:23:08;;;;;;;32.08;11.18;;;9.90;99.00;;;;;;5095000;28;20365;-86
2022/07/29 08:25:38;;;;;;;24.15;6.88;;;9.90;99.20;;;;;;5096283;28;20408;-86
2022/07/29 08:28:06;;;;;;;36.72;12.75;;;9.80;99.50;;;;;;5095708;28;20392;-85
2022/07/29 08:30:33;;;;;;;16.00;6.00;;;9.80;99.70;;;;;;5095878;28;20459;-86
2022/07/29 08:33:01;;;;;;;10.38;3.85;;;9.70;99.90;;;;;;5095980;28;20880;-85
2022/07/29 08:35:28;;;;;;;9.05;3.10;;;9.70;99.90;;;;;;5095754;28;20369;-85
2022/07/29 08:37:56;;;;;;;7.95;3.20;;;9.60;99.90;;;;;;5094421;28;20445;-86
2022/07/29 08:40:24;;;;;;;7.30;3.38;;;9.60;99.90;;;;;;5095752;28;20864;-85
2022/07/29 08:42:51;;;;;;;11.18;6.25;;;9.60;99.90;;;;;;5095326;28;20397;-85
2022/07/29 08:45:19;;;;;;;13.15;6.10;;;9.40;99.90;;;;;;5095646;28;20373;-88
2022/07/29 08:47:46;;;;;;;15.38;6.60;;;9.40;99.90;;;;;;5095405;28;20386;-85
2022/07/29 08:50:14;;;;;;;15.90;5.53;;;9.20;99.90;;;;;;5095491;28;20481;-86
2022/07/29 08:52:43;;;;;;;10.80;3.25;;;9.10;99.90;;;;;;5094100;28;20737;-86
2022/07/29 08:55:10;;;;;;;12.57;2.83;;;9.10;99.90;;;;;;5096180;28;20361;-84
2022/07/29 08:57:40;;;;;;;9.57;2.63;;;9.10;99.90;;;;;;5095273;28;20418;-86
2022/07/29 09:00:10;;;;;;;10.93;3.08;;;9.20;99.90;;;;;;5095039;28;20425;-85
2022/07/29 09:02:42;;;;;;;10.40;4.03;;;9.20;99.90;;;;;;5095617;28;20384;-85
2022/07/29 09:05:10;;;;;;;27.90;17.92;;;9.10;99.90;;;;;;5098256;28;20369;-86
2022/07/29 09:07:39;;;;;;;22.03;15.80;;;9.00;99.90;;;;;;5093494;28;20426;-84
2022/07/29 09:10:06;;;;;;;26.25;18.65;;;9.00;99.90;;;;;;5094577;28;20451;-85
2022/07/29 09:12:34;;;;;;;24.50;16.27;;;8.90;99.90;;;;;;5094550;28;20764;-85
2022/07/29 09:15:01;;;;;;;26.90;21.25;;;8.80;99.90;;;;;;5095121;28;20372;-85
2022/07/29 09:17:45;;;;;;;23.77;17.58;;;8.70;99.90;;;;;;5094890;28;20402;-84
2022/07/29 09:20:23;;;;;;;19.25;15.70;;;8.60;99.90;;;;;;5095156;28;20364;-84
2022/07/29 09:22:53;;;;;;;19.47;13.57;;;8.50;99.90;;;;;;5094859;28;20363;-84
2022/07/29 09:25:36;;;;;;;21.50;13.90;;;8.40;99.90;;;;;;5093401;28;20376;-86
2022/07/29 09:28:08;;;;;;;14.60;9.70;;;8.30;99.90;;;;;;5093261;28;20365;-85
2022/07/29 09:30:36;;;;;;;13.50;8.07;;;8.20;99.90;;;;;;5093041;28;20464;-85
2022/07/29 09:33:03;;;;;;;14.27;6.90;;;8.10;99.90;;;;;;5094343;28;20400;-85
2022/07/29 09:35:32;;;;;;;12.52;6.70;;;8.10;99.90;;;;;;5094270;28;20364;-85
2022/07/29 09:38:10;;;;;;;13.52;6.60;;;8.00;99.90;;;;;;5092930;28;20376;-79
2022/07/29 09:40:37;;;;;;;13.50;6.47;;;8.10;99.90;;;;;;5093894;28;20379;-79
2022/07/29 09:43:12;;;;;;;9.85;5.82;;;8.20;99.90;;;;;;5093637;28;20736;-79
2022/07/29 09:45:39;;;;;;;13.02;5.65;;;8.20;99.90;;;;;;5093806;28;20433;-78
2022/07/29 09:48:19;;;;;;;14.57;6.95;;;8.30;99.90;;;;;;5093890;28;20917;-78
2022/07/29 09:50:50;;;;;;;12.80;6.60;;;8.40;99.90;;;;;;5093769;28;20369;-78
2022/07/29 09:53:37;;;;;;;12.80;6.80;;;8.60;99.90;;;;;;5094209;28;20376;-77
2022/07/29 09:56:05;;;;;;;13.55;6.97;;;8.70;99.90;;;;;;5093626;28;20368;-78
2022/07/29 09:58:35;;;;;;;10.57;5.80;;;8.80;99.90;;;;;;5093584;28;20372;-77
2022/07/29 10:01:03;;;;;;;13.57;5.72;;;8.80;99.90;;;;;;5093595;28;20853;-77
2022/07/29 10:03:30;;;;;;;9.63;5.45;;;8.80;99.90;;;;;;5093722;28;20381;-76
2022/07/29 10:06:09;;;;;;;13.02;5.72;;;8.80;99.90;;;;;;5093466;28;20452;-78
2022/07/29 10:08:37;;;;;;;10.07;5.90;;;8.70;99.90;;;;;;5093520;28;20411;-77
2022/07/29 10:11:17;;;;;;;11.43;5.30;;;8.50;99.90;;;;;;5093376;28;20372;-77
2022/07/29 10:13:48;;;;;;;10.32;4.65;;;8.40;99.90;;;;;;5093321;28;20391;-77
2022/07/29 10:16:16;;;;;;;8.70;4.95;;;8.40;99.90;;;;;;5093173;28;20364;-76
2022/07/29 10:18:46;;;;;;;8.82;4.40;;;8.20;99.90;;;;;;5093481;28;20766;-78
2022/07/29 10:21:14;;;;;;;9.07;4.90;;;8.20;99.90;;;;;;5093251;28;20368;-77
2022/07/29 10:23:43;;;;;;;12.20;7.07;;;8.20;99.90;;;;;;5092734;28;20823;-77
2022/07/29 10:26:11;;;;;;;12.90;7.40;;;8.20;99.90;;;;;;5093019;28;20377;-79
2022/07/29 10:28:38;;;;;;;6.93;4.60;;;8.30;99.90;;;;;;5093239;28;20381;-77
2022/07/29 10:31:12;;;;;;;10.80;4.40;;;8.10;99.90;;;;;;5092871;28;20368;-77
2022/07/29 10:34:14;;;;;;;9.55;4.10;;;8.00;99.90;;;;;;5093000;28;20885;-77
2022/07/29 10:37:08;;;;;;;10.75;4.03;;;7.90;99.90;;;;;;5092763;28;20400;-79
2022/07/29 10:40:00;;;;;;;6.35;3.50;;;8.00;99.90;;;;;;5093004;28;20848;-79
2022/07/29 10:42:29;;;;;;;8.55;3.72;;;7.90;99.90;;;;;;5091408;28;20403;-76
2022/07/29 10:44:57;;;;;;;6.07;3.78;;;8.00;99.90;;;;;;5092820;28;20859;-78
2022/07/29 10:47:26;;;;;;;7.87;3.80;;;8.00;99.90;;;;;;5092503;28;20369;-77
2022/07/29 10:50:02;;;;;;;8.10;4.35;;;8.10;99.90;;;;;;5092681;28;20373;-77
2022/07/29 10:52:53;;;;;;;10.00;4.03;;;8.10;99.90;;;;;;5093049;28;20787;-77
2022/07/29 10:55:42;;;;;;;6.90;3.90;;;8.00;99.90;;;;;;5092387;28;20360;-77
2022/07/29 10:58:29;;;;;;;9.18;5.38;;;7.90;99.90;;;;;;5092450;28;20372;-78
2022/07/29 11:00:56;;;;;;;10.77;6.97;;;7.80;99.90;;;;;;5092726;28;20356;-78
2022/07/29 11:03:45;;;;;;;12.18;5.80;;;7.70;99.90;;;;;;5092500;28;20769;-79
2022/07/29 11:06:13;;;;;;;8.32;4.75;;;7.60;99.90;;;;;;5092391;28;20377;-77
2022/07/29 11:08:41;;;;;;;6.60;4.10;;;7.50;99.90;;;;;;5092373;28;20369;-79
2022/07/29 11:11:20;;;;;;;9.98;3.90;;;7.50;99.90;;;;;;5092277;28;20486;-78
2022/07/29 11:13:54;;;;;;;7.57;3.80;;;7.40;99.90;;;;;;5092212;28;20383;-75
2022/07/29 11:16:23;;;;;;;6.53;3.40;;;7.40;99.90;;;;;;5092323;28;20859;-75
2022/07/29 11:19:11;;;;;;;6.10;3.47;;;7.30;99.90;;;;;;5092372;28;20757;-77
2022/07/29 11:21:43;;;;;;;10.70;3.90;;;7.30;99.90;;;;;;5092723;28;20383;-76
2022/07/29 11:24:36;;;;;;;9.13;4.17;;;7.30;99.90;;;;;;5092472;28;20372;-76
2022/07/29 11:27:22;;;;;;;7.60;3.70;;;7.30;99.90;;;;;;5089338;28;20864;-75
2022/07/29 11:30:03;;;;;;;7.05;3.45;;;7.20;99.90;;;;;;5092240;28;20368;-77
2022/07/29 11:32:44;;;;;;;7.18;3.10;;;7.20;99.90;;;;;;5092095;28;20852;-76
2022/07/29 11:35:15;;;;;;;6.30;2.90;;;7.20;99.90;;;;;;5092691;28;20797;-77
2022/07/29 11:37:42;;;;;;;5.78;2.75;;;7.30;99.90;;;;;;5096281;28;20380;-77
2022/07/29 11:40:11;;;;;;;7.55;2.72;;;7.30;99.90;;;;;;5096405;28;20364;-78
2022/07/29 11:42:40;;;;;;;7.63;2.60;;;7.30;99.90;;;;;;5096100;28;20445;-78
2022/07/29 11:45:17;;;;;;;6.22;2.67;;;7.20;99.90;;;;;;5096248;28;20380;-78
2022/07/29 11:47:49;;;;;;;5.45;2.75;;;7.20;99.90;;;;;;5096791;28;20360;-78
2022/07/29 11:50:29;;;;;;;6.03;2.53;;;7.20;99.90;;;;;;5096410;28;20357;-78
2022/07/29 11:52:58;;;;;;;5.65;2.40;;;7.20;99.90;;;;;;5096227;28;20392;-77
2022/07/29 11:55:25;;;;;;;5.70;2.90;;;7.10;99.90;;;;;;5096140;28;20558;-78
2022/07/29 11:57:58;;;;;;;5.82;2.80;;;8.50;99.90;;;;;;5095912;28;20888;-77
2022/07/29 12:00:28;;;;;;;6.38;3.40;;;7.00;99.90;;;;;;5095982;28;20369;-77
2022/07/29 12:02:57;;;;;;;6.80;3.10;;;6.90;99.90;;;;;;5096392;28;20375;-78
2022/07/29 12:05:39;;;;;;;6.13;3.30;;;6.90;99.90;;;;;;5096163;28;20364;-77
2022/07/29 12:08:19;;;;;;;7.60;3.38;;;6.80;99.90;;;;;;5095693;28;20364;-77
2022/07/29 12:10:48;;;;;;;7.78;3.40;;;6.70;99.90;;;;;;5095740;28;20365;-76
2022/07/29 12:13:17;;;;;;;6.15;3.80;;;6.70;99.90;;;;;;5095571;28;20408;-77
2022/07/29 12:16:00;;;;;;;7.72;4.13;;;6.70;99.90;;;;;;5095621;28;20867;-76
2022/07/29 12:18:27;;;;;;;7.00;4.40;;;6.70;99.90;;;;;;5095512;28;20425;-77
2022/07/29 12:21:04;;;;;;;6.47;3.33;;;6.70;99.90;;;;;;5095486;28;20418;-78
2022/07/29 12:23:32;;;;;;;6.07;3.20;;;6.70;99.90;;;;;;5095788;28;20372;-77
2022/07/29 12:26:00;;;;;;;8.73;3.20;;;6.60;99.90;;;;;;5095471;28;20383;-77
2022/07/29 12:28:27;;;;;;;7.82;3.17;;;6.60;99.90;;;;;;5095391;28;20409;-77
2022/07/29 12:30:55;;;;;;;9.90;3.53;;;6.60;99.90;;;;;;5095179;28;20426;-77
2022/07/29 12:33:23;;;;;;;8.00;3.50;;;6.50;99.90;;;;;;5095328;28;20380;-77
2022/07/29 12:35:59;;;;;;;7.75;3.72;;;6.40;99.90;;;;;;5093485;28;20751;-76
2022/07/29 12:38:28;;;;;;;10.32;3.67;;;6.40;99.90;;;;;;5095274;28;20388;-78
2022/07/29 12:40:55;;;;;;;9.75;3.25;;;6.40;99.90;;;;;;5095095;28;20902;-74
2022/07/29 12:43:24;;;;;;;7.75;3.47;;;6.70;99.90;;;;;;5094980;28;20458;-77
2022/07/29 12:45:57;;;;;;;8.52;3.33;;;6.70;99.90;;;;;;5094478;28;20369;-78
2022/07/29 12:48:38;;;;;;;10.38;3.50;;;6.70;99.90;;;;;;5095324;28;20587;-78
2022/07/29 12:51:07;;;;;;;8.80;3.17;;;6.70;99.90;;;;;;5094896;28;20365;-77
2022/07/29 12:53:34;;;;;;;7.07;3.05;;;6.60;99.90;;;;;;5095217;28;20393;-78
2022/07/29 12:56:02;;;;;;;9.45;3.20;;;6.60;99.90;;;;;;5094954;28;20404;-77
2022/07/29 12:58:42;;;;;;;5.90;2.88;;;6.60;99.90;;;;;;5095374;28;20377;-76
2022/07/29 13:01:19;;;;;;;9.57;3.05;;;6.60;99.90;;;;;;5094864;28;20403;-76
2022/07/29 13:03:56;;;;;;;4.80;3.00;;;6.60;99.90;;;;;;5093693;28;20384;-77
2022/07/29 13:06:40;;;;;;;7.15;3.30;;;6.60;99.90;;;;;;5094767;28;20365;-75
2022/07/29 13:09:13;;;;;;;7.03;3.45;;;6.50;99.90;;;;;;5094749;28;20490;-78
2022/07/29 13:11:43;;;;;;;7.18;3.50;;;6.40;99.90;;;;;;5094450;28;20767;-78